Flight Track Log - Related Links

Times and Time Zones

All times are in EDT time to prevent confusion due to time zone crossing. See the ASQ3826 flight status page for this flight to view local times or setup timezone preferences in your user account.

Time Position Orientation Groundspeed Altitude Reporting Facility
EDT Latitude Longitude Course Direction KTS MPH feet Rate Location/Type
Sat 09:39:53 PM 40.6667 -74.1833 252° West 169 194 800  Level New York TRACON
Sat 09:41:40 PM 40.6447 -74.2856 254° West 198 228 3,600 2,012 Climbing New York Center
Sat 09:42:00 PM 40.5502 -74.5437 250° West  Level FlightAware Approximate
Sat 09:42:40 PM 40.6314 -74.3861 260° West 249 287 6,400  Level New York Center
Sat 09:43:00 PM 40.5121 -74.6804 246° West  Level FlightAware Approximate
Sat 09:43:40 PM 40.6208 -74.4567 259° West 242 278 9,100  Level New York Center
Sat 09:44:00 PM 40.4677 -74.8136 246° West  Level FlightAware Approximate
Sat 09:44:40 PM 40.6094 -74.5461 261° West 242 278 10,700  Level New York Center
Sat 09:45:00 PM 40.4221 -74.9452 252° West  Level FlightAware Approximate
Sat 09:45:40 PM 40.5669 -74.6422 240° Southwest 260 299 11,600  Level New York Center
Sat 09:46:40 PM 40.5286 -74.7275 239° Southwest 290 334 12,800 1,300 Climbing New York Center
Sat 09:47:40 PM 40.4789 -74.8392 240° Southwest 315 362 14,200 1,450 Climbing New York Center
Sat 09:48:40 PM 40.4358 -74.9375 240° Southwest 315 362 15,700 1,400 Climbing New York Center
Sat 09:49:40 PM 40.3806 -75.0294 232° Southwest 320 368 17,000 1,200 Climbing New York Center
Sat 09:50:40 PM 40.3169 -75.1181 227° Southwest 334 384 18,100 1,050 Climbing New York Center
Sat 09:51:40 PM 40.2597 -75.1989 227° Southwest 340 391 19,100 1,050 Climbing New York Center
Sat 09:52:40 PM 40.1956 -75.2925 228° Southwest 340 391 20,200 1,100 Climbing New York Center
Sat 09:53:40 PM 40.1208 -75.3964 227° Southwest 352 405 21,300 1,000 Climbing New York Center
Sat 09:54:40 PM 40.0525 -75.4894 226° Southwest 357 411 22,200 1,000 Climbing New York Center
Sat 09:55:40 PM 39.9817 -75.5875 227° Southwest 362 417 23,300 1,100 Climbing New York Center
Sat 09:56:40 PM 39.9153 -75.6833 228° Southwest 362 417 24,400 1,100 Climbing New York Center
Sat 09:57:40 PM 39.8528 -75.7842 231° Southwest 362 417 25,500 1,000 Climbing New York Center
Sat 09:59:40 PM 39.7272 -75.9831 231° Southwest 362 417 27,400 900 Climbing New York Center
Sat 10:00:40 PM 39.6644 -76.0836 231° Southwest 362 417 28,200 769 Climbing New York Center
Sat 10:01:37 PM 39.6114 -76.1581 227° Southwest 357 411 28,900 814 Climbing Washington Center
Sat 10:02:38 PM 39.5486 -76.2567 230° Southwest 357 411 29,800 885 Climbing Washington Center
Sat 10:03:39 PM 39.4847 -76.3544 230° Southwest 357 411 30,700 934 Climbing Washington Center
Sat 10:04:40 PM 39.4075 -76.4739 230° Southwest 358 412 31,700 927 Climbing Washington Center
Sat 10:05:42 PM 39.3428 -76.5775 231° Southwest 361 415 32,600 823 Climbing Washington Center
Sat 10:06:44 PM 39.2781 -76.6783 230° Southwest 363 418 33,400 829 Climbing Washington Center
Sat 10:07:45 PM 39.2144 -76.7794 231° Southwest 363 418 34,300 843 Climbing Washington Center
Sat 10:08:45 PM 39.1489 -76.8775 229° Southwest 363 418 35,100 650 Climbing Washington Center
Sat 10:09:45 PM 39.0703 -76.9672 222° Southwest 373 429 35,600 439 Climbing Washington Center
Sat 10:10:48 PM 38.9911 -77.0581 222° Southwest 377 434 36,000 194 Climbing Washington Center
Sat 10:11:49 PM 38.9100 -77.1519 222° Southwest 386 444 36,000  Level Washington Center
Sat 10:12:49 PM 38.8258 -77.2467 221° Southwest 395 455 36,000  Level Washington Center
Sat 10:13:50 PM 38.7417 -77.3425 222° Southwest 398 458 36,000  Level Washington Center
Sat 10:14:50 PM 38.6578 -77.4369 221° Southwest 398 458 36,000  Level Washington Center
Sat 10:15:51 PM 38.5664 -77.5392 221° Southwest 404 465 36,000  Level Washington Center
Sat 10:16:55 PM 38.4878 -77.6275 221° Southwest 404 465 36,000  Level Washington Center
Sat 10:17:55 PM 38.4017 -77.7233 221° Southwest 404 465 36,000  Level Washington Center
Sat 10:18:56 PM 38.3142 -77.8206 221° Southwest 412 474 36,000  Level Washington Center
Sat 10:19:58 PM 38.2267 -77.9172 221° Southwest 413 475 36,000  Level Washington Center
Sat 10:21:00 PM 38.1222 -78.0339 221° Southwest 414 476 36,000  Level Washington Center
Sat 10:22:01 PM 38.0350 -78.1286 221° Southwest 413 475 36,000  Level Washington Center
Sat 10:23:02 PM 37.9383 -78.2236 218° Southwest 424 488 36,000  Level Washington Center
Sat 10:24:03 PM 37.8478 -78.3108 217° Southwest 423 487 36,000  Level Washington Center
Sat 10:25:04 PM 37.7564 -78.3975 217° Southwest 423 487 36,000  Level Washington Center
Sat 10:26:04 PM 37.6656 -78.4847 217° Southwest 422 486 36,000  Level Washington Center
Sat 10:27:05 PM 37.5533 -78.5906 217° Southwest 426 490 36,000  Level Washington Center
Sat 10:28:09 PM 37.4603 -78.6778 217° Southwest 427 491 36,000  Level Washington Center
Sat 10:29:09 PM 37.3678 -78.7647 217° Southwest 427 491 36,000  Level Washington Center
Sat 10:30:11 PM 37.2744 -78.8514 216° Southwest 426 490 36,000  Level Washington Center
Sat 10:31:12 PM 37.1819 -78.9375 217° Southwest 426 490 36,000  Level Washington Center
Sat 10:32:14 PM 37.0697 -79.0422 217° Southwest 426 490 36,000  Level Washington Center
Sat 10:33:14 PM 36.9758 -79.1294 217° Southwest 426 490 36,000  Level Washington Center
Sat 10:34:16 PM 36.8806 -79.2183 217° Southwest 434 499 36,000  Level Washington Center
Sat 10:35:15 PM 36.7853 -79.3058 216° Southwest 438 504 36,000  Level Washington Center
Sat 10:36:16 PM 36.6892 -79.3936 216° Southwest 438 504 36,000  Level Washington Center
Sat 10:37:20 PM 36.5769 -79.4964 216° Southwest 430 495 36,000  Level Washington Center
Sat 10:38:21 PM 36.4822 -79.5833 216° Southwest 430 495 36,000  Level Washington Center
Sat 10:39:22 PM 36.3867 -79.6717 217° Southwest 435 501 36,000  Level Washington Center
Sat 10:40:23 PM 36.2894 -79.7561 215° Southwest 433 498 36,000  Level Washington Center
Sat 10:41:29 PM 36.1728 -79.8592 216° Southwest 437 503 36,000  Level Atlanta Center
Sat 10:42:28 PM 36.0756 -79.9464 216° Southwest 437 503 36,000  Level Atlanta Center
Sat 10:43:29 PM 35.9564 -80.0011 200° South 442 509 36,000  Level Atlanta Center
Sat 10:44:29 PM 35.8156 -80.0336 191° South 459 528 36,000  Level Atlanta Center
Sat 10:45:28 PM 35.6914 -80.0653 192° South 464 534 36,000  Level Atlanta Center
Sat 10:46:30 PM 35.5939 -80.0928 193° South 458 527 36,000  Level Washington Center
Sat 10:47:30 PM 35.4672 -80.1239 191° South 458 527 36,000  Level Washington Center
Sat 10:48:32 PM 35.3172 -80.1619 192° South 459 528 36,000  Level Washington Center
Sat 10:49:29 PM 35.2011 -80.1906 191° South 469 540 36,000  Level Atlanta Center
Sat 10:51:35 PM 34.9319 -80.2572 191° South 468 539 36,000  Level Washington Center
Sat 10:53:46 PM 34.6492 -80.3308 192° South 469 540 36,000  Level Jacksonville Center
Sat 10:54:46 PM 34.5244 -80.3597 191° South 469 540 36,000  Level Jacksonville Center
Sat 10:55:46 PM 34.4000 -80.3911 192° South 469 540 36,000  Level Jacksonville Center
Sat 10:56:46 PM 34.2711 -80.4225 191° South 469 540 36,000  Level Jacksonville Center
Sat 10:57:46 PM 34.1467 -80.4511 191° South 469 540 36,000  Level Jacksonville Center
Sat 10:58:46 PM 34.0219 -80.4822 192° South 469 540 36,000  Level Jacksonville Center
Sat 10:59:46 PM 33.8994 -80.5156 193° South 464 534 36,000  Level Jacksonville Center
Sat 11:00:46 PM 33.7772 -80.5514 194° South 464 534 36,000  Level Jacksonville Center
Sat 11:01:46 PM 33.6525 -80.5872 193° South 464 534 36,000  Level Jacksonville Center
Sat 11:02:46 PM 33.5258 -80.6178 191° South 469 540 36,000  Level Jacksonville Center
Sat 11:03:46 PM 33.4053 -80.6508 193° South 464 534 36,000  Level Jacksonville Center
Sat 11:04:46 PM 33.2933 -80.6833 194° South 464 534 36,000 -250 Level Jacksonville Center
Sat 11:05:46 PM 33.1706 -80.7139 192° South 464 534 35,500 -950 Descending Jacksonville Center
Sat 11:06:46 PM 33.0461 -80.7464 192° South 464 534 34,100 -1,450 Descending Jacksonville Center
Sat 11:07:46 PM 32.9256 -80.7792 193° South 459 528 32,600 -1,500 Descending Jacksonville Center
Sat 11:08:46 PM 32.7986 -80.8117 192° South 459 528 31,100 -1,300 Descending Jacksonville Center
Sat 11:09:46 PM 32.6739 -80.8442 192° South 459 528 30,000 -600 Descending Jacksonville Center
Sat 11:10:46 PM 32.5472 -80.8792 193° South 465 535 29,900  Descending Jacksonville Center
Sat 11:11:46 PM 32.4225 -80.9114 192° South 465 535 30,000 50 Climbing Jacksonville Center
Sat 11:12:46 PM 32.3019 -80.9436 193° South 454 522 30,000 -950 Level Jacksonville Center
Sat 11:13:46 PM 32.1667 -80.9783 192° South 454 522 28,100 -1,900 Descending Jacksonville Center
Sat 11:14:46 PM 32.0397 -81.0103 192° South 454 522 26,200 -1,800 Descending Jacksonville Center
Sat 11:15:46 PM 31.9275 -81.0419 193° South 459 528 24,500 -1,100 Descending Jacksonville Center
Sat 11:16:46 PM 31.7922 -81.0764 192° South 464 534 24,000 -250 Descending Jacksonville Center
Sat 11:17:46 PM 31.6778 -81.1056 192° South 464 534 24,000 -250 Level Jacksonville Center
Sat 11:18:46 PM 31.5447 -81.1397 192° South 464 534 23,500 -850 Descending Jacksonville Center
Sat 11:19:46 PM 31.4261 -81.1714 193° South 446 513 22,300 -1,650 Descending Jacksonville Center
Sat 11:20:46 PM 31.3014 -81.2003 191° South 451 519 20,200 -2,235 Descending Jacksonville Center
Sat 11:21:28 PM 31.2306 -81.2186 192° South 414 476 18,500 -2,500 Descending Jacksonville Center
Sat 11:21:46 PM 31.1911 -81.2339 198° South 429 494 17,700 -2,769 Descending Jacksonville Center
Sat 11:22:46 PM 31.0808 -81.2600 191° South 409 471 14,900 -2,650 Descending Jacksonville Center
Sat 11:23:46 PM 30.9767 -81.2886 193° South 409 471 12,400 -2,050 Descending Jacksonville Center
Sat 11:24:46 PM 30.8831 -81.3192 196° South 381 438 10,800 -1,200 Descending Jacksonville Center
Sat 11:25:46 PM 30.8256 -81.3878 226° Southwest 320 368 10,000 -1,000 Descending Jacksonville Center
Sat 11:26:46 PM 30.7783 -81.4658 235° Southwest 300 345 8,800 -1,271 Descending Jacksonville Center
Sat 11:27:44 PM 30.7333 -81.5417 235° Southwest 290 334 7,500 -1,361 Descending Jacksonville Center
Sat 11:28:45 PM 30.6922 -81.6122 236° Southwest 263 303 6,100 -1,388 Descending Jacksonville Center
Sat 11:29:45 PM 30.6553 -81.6781 237° Southwest 239 275 4,700 -1,289 Descending Jacksonville Center
Sat 11:30:46 PM 30.6183 -81.7386 235° Southwest 223 257 3,500 -1,240 Descending Jacksonville Center
Sat 11:31:46 PM 30.5833 -81.7994 236° Southwest 217 250 2,200 -744 Descending Jacksonville Center
Sat 11:32:47 PM 30.5506 -81.8553 236° Southwest 209 241 2,000 -98 Descending Jacksonville Center
Sat 11:33:48 PM 30.4961 -81.8486 174° South 194 223 2,000  Level Jacksonville Center
Sat 11:34:48 PM 30.4603 -81.8178 143° Southeast 148 170 2,000 -347 Level Jacksonville Center
Sat 11:35:49 PM 30.4725 -81.7742 72° East 148 170 1,300 -639 Descending Jacksonville Center
Sat 11:36:50 PM 30.4847 -81.7308 72° East 132 152 700 -590 Descending Jacksonville Center

Login

Don't have an account? Register now (free) for customized features, flight alerts, and more!